createdAt,value
2023-02-16T00:02:24.410Z,46.10
2023-02-16T00:07:17.211Z,46.30
2023-02-16T00:12:36.970Z,44.80
2023-02-16T00:17:29.748Z,46.50
2023-02-16T00:22:22.520Z,44.00
2023-02-16T00:27:18.625Z,43.80
2023-02-16T00:32:13.629Z,51.80
2023-02-16T00:37:12.081Z,53.50
2023-02-16T00:42:24.210Z,50.40
2023-02-16T00:47:22.285Z,53.80
2023-02-16T00:52:38.384Z,50.50
2023-02-16T00:57:35.278Z,50.80
2023-02-16T01:02:28.390Z,52.90
2023-02-16T01:07:39.254Z,51.80
2023-02-16T01:12:32.394Z,61.60
2023-02-16T01:17:25.933Z,56.30
2023-02-16T01:22:21.635Z,57.90
2023-02-16T01:27:15.060Z,58.00
2023-02-16T01:32:13.724Z,61.20
2023-02-16T01:37:06.617Z,65.50
2023-02-16T01:42:12.651Z,65.40
2023-02-16T01:47:25.986Z,64.80
2023-02-16T01:52:28.588Z,61.90
2023-02-16T01:57:45.634Z,63.30
2023-02-16T02:02:44.206Z,64.80
2023-02-16T02:07:54.182Z,66.50
2023-02-16T02:13:29.175Z,63.40
2023-02-16T02:18:22.426Z,61.00
2023-02-16T02:23:53.807Z,62.50
2023-02-16T02:29:24.182Z,65.70
2023-02-16T02:34:24.071Z,66.50
2023-02-16T02:39:46.554Z,64.10
2023-02-16T02:45:13.011Z,62.70
2023-02-16T02:50:39.261Z,63.50
2023-02-16T02:55:55.419Z,71.40
2023-02-16T03:00:51.865Z,75.40
2023-02-16T03:05:52.262Z,64.90
2023-02-16T03:11:09.068Z,67.90
2023-02-16T03:16:06.709Z,69.30
2023-02-16T03:21:17.497Z,74.30
2023-02-16T03:26:29.411Z,70.70
2023-02-16T03:31:29.603Z,68.90
2023-02-16T03:36:28.366Z,67.80
2023-02-16T03:41:21.194Z,66.70
2023-02-16T03:46:14.537Z,71.40
2023-02-16T03:51:07.375Z,65.40
2023-02-16T03:56:00.173Z,73.00
2023-02-16T04:00:54.285Z,69.10
2023-02-16T04:05:49.163Z,72.10
2023-02-16T04:10:42.058Z,69.10
2023-02-16T04:15:34.980Z,75.50
2023-02-16T04:20:32.973Z,68.30
2023-02-16T04:25:26.460Z,75.90
2023-02-16T04:30:25.798Z,71.20
2023-02-16T04:35:19.319Z,78.00
2023-02-16T04:40:14.151Z,71.50
2023-02-16T04:45:07.441Z,75.70
2023-02-16T04:50:00.208Z,73.80
2023-02-16T04:54:53.096Z,68.80
2023-02-16T04:59:46.512Z,78.70
2023-02-16T05:04:39.573Z,72.00
2023-02-16T05:09:32.400Z,79.40
2023-02-16T05:14:43.217Z,78.60
2023-02-16T05:19:36.149Z,73.70
2023-02-16T05:24:28.943Z,81.70
2023-02-16T05:29:21.772Z,79.30
2023-02-16T05:34:15.040Z,79.10
2023-02-16T05:39:07.799Z,70.70
2023-02-16T05:44:04.591Z,73.30
2023-02-16T05:48:57.386Z,76.10
2023-02-16T05:53:50.361Z,73.60
2023-02-16T05:58:43.147Z,75.10
2023-02-16T06:03:37.025Z,78.00
2023-02-16T06:08:30.659Z,81.30
2023-02-16T06:13:25.364Z,68.90
2023-02-16T06:18:18.400Z,76.80
2023-02-16T06:23:13.568Z,86.60
2023-02-16T06:28:06.596Z,72.50
2023-02-16T06:32:59.383Z,71.60
2023-02-16T06:37:52.267Z,72.80
2023-02-16T06:42:45.275Z,74.50
2023-02-16T06:47:38.824Z,73.20
2023-02-16T06:52:31.607Z,84.40
2023-02-16T06:57:24.427Z,77.10
2023-02-16T07:02:17.252Z,68.00
2023-02-16T07:07:10.539Z,69.90
2023-02-16T07:12:03.316Z,72.90
2023-02-16T07:16:59.164Z,68.10
2023-02-16T07:21:52.135Z,72.20
2023-02-16T07:26:44.960Z,70.50
2023-02-16T07:31:37.817Z,73.40
2023-02-16T07:36:30.687Z,69.30
2023-02-16T07:41:23.576Z,70.40
2023-02-16T07:46:16.589Z,74.60
2023-02-16T07:51:09.422Z,74.00
2023-02-16T07:56:02.228Z,66.90
2023-02-16T08:01:07.515Z,73.60
2023-02-16T08:06:04.535Z,69.40
2023-02-16T08:10:57.285Z,71.40
2023-02-16T08:15:50.049Z,70.80
2023-02-16T08:21:02.337Z,65.20
2023-02-16T08:25:59.236Z,69.20
2023-02-16T08:30:53.355Z,69.40
2023-02-16T08:35:46.168Z,67.10
2023-02-16T08:40:38.920Z,66.80
2023-02-16T08:45:31.922Z,67.60
2023-02-16T08:50:24.929Z,69.90
2023-02-16T08:55:18.373Z,67.10
2023-02-16T09:00:29.372Z,65.60
2023-02-16T09:05:22.569Z,71.40
2023-02-16T09:10:15.361Z,64.40
2023-02-16T09:15:08.704Z,64.30
2023-02-16T09:20:02.289Z,66.90
2023-02-16T09:24:55.059Z,67.00
2023-02-16T09:29:47.878Z,65.30
2023-02-16T09:34:40.669Z,68.60
2023-02-16T09:39:33.848Z,63.90
2023-02-16T09:45:09.866Z,59.20
2023-02-16T09:50:14.682Z,58.90
2023-02-16T09:55:17.332Z,59.40
2023-02-16T10:00:37.560Z,56.90
2023-02-16T10:05:42.559Z,55.80
2023-02-16T10:10:51.076Z,52.30
2023-02-16T10:15:46.150Z,55.80
2023-02-16T10:20:44.017Z,53.50
2023-02-16T10:25:54.921Z,53.10
2023-02-16T10:30:58.370Z,49.60
2023-02-16T10:35:58.324Z,49.70
2023-02-16T10:41:05.774Z,53.20
2023-02-16T10:46:02.075Z,56.00
2023-02-16T10:51:02.388Z,47.60
2023-02-16T10:55:58.160Z,52.20
2023-02-16T11:00:58.001Z,49.90
2023-02-16T11:05:53.432Z,53.20
2023-02-16T11:10:52.540Z,46.80
2023-02-16T11:15:54.638Z,45.40
2023-02-16T11:20:47.824Z,50.40
2023-02-16T11:25:40.759Z,48.80
2023-02-16T11:30:36.700Z,47.90
2023-02-16T11:35:32.987Z,47.40
2023-02-16T11:40:34.923Z,45.80
2023-02-16T11:45:36.609Z,46.80
2023-02-16T11:50:35.270Z,43.70
2023-02-16T11:55:33.688Z,43.90
2023-02-16T12:00:28.202Z,43.50
2023-02-16T12:05:50.263Z,42.60
2023-02-16T12:11:28.193Z,45.40
2023-02-16T12:16:30.914Z,44.40
2023-02-16T12:21:46.464Z,42.80
2023-02-16T12:26:42.708Z,43.50
2023-02-16T12:31:54.355Z,43.90
2023-02-16T12:36:59.197Z,43.60
2023-02-16T12:42:00.591Z,43.50
2023-02-16T12:47:12.930Z,40.70
2023-02-16T12:52:18.569Z,46.00
2023-02-16T12:57:17.476Z,45.20
2023-02-16T13:02:40.492Z,40.50
2023-02-16T13:07:39.941Z,44.80
2023-02-16T13:12:40.623Z,46.80
2023-02-16T13:17:39.648Z,32.50
2023-02-16T13:22:38.431Z,33.50
2023-02-16T13:27:46.814Z,35.80
2023-02-16T13:33:19.967Z,31.70
2023-02-16T13:38:43.711Z,38.60
2023-02-16T13:43:42.429Z,36.80
2023-02-16T13:48:47.225Z,39.50
2023-02-16T13:53:43.260Z,37.80
2023-02-16T13:58:36.576Z,43.20
2023-02-16T14:03:38.809Z,39.70
2023-02-16T14:08:32.805Z,38.30
2023-02-16T14:13:33.545Z,39.50
2023-02-16T14:18:48.138Z,38.60
2023-02-16T14:23:41.708Z,44.80
2023-02-16T14:28:35.458Z,45.00
2023-02-16T14:33:51.390Z,44.20
2023-02-16T14:38:47.289Z,46.80
2023-02-16T14:43:53.973Z,44.00
2023-02-16T14:49:26.011Z,45.00
2023-02-16T14:54:37.888Z,45.80
2023-02-16T14:59:33.440Z,49.00
2023-02-16T15:04:31.577Z,51.60
2023-02-16T15:09:32.032Z,49.40
2023-02-16T15:14:26.956Z,55.40
2023-02-16T15:19:28.945Z,52.00
2023-02-16T15:24:25.413Z,49.50
2023-02-16T15:29:18.789Z,47.20
2023-02-16T15:34:28.480Z,49.90
2023-02-16T15:39:45.252Z,53.80
2023-02-16T15:44:42.058Z,51.40
2023-02-16T15:49:38.992Z,46.50
2023-02-16T15:54:35.648Z,47.80
2023-02-16T15:59:55.316Z,46.40
2023-02-16T16:04:55.043Z,50.30
2023-02-16T16:09:48.843Z,50.00
2023-02-16T16:14:49.165Z,49.70
2023-02-16T16:19:42.046Z,48.70
2023-02-16T16:24:39.141Z,49.60
2023-02-16T16:29:42.369Z,45.90
2023-02-16T16:34:42.273Z,48.80
2023-02-16T16:39:40.505Z,57.60
2023-02-16T16:44:39.169Z,50.40
2023-02-16T16:49:31.985Z,46.00
2023-02-16T16:54:36.590Z,54.00
2023-02-16T16:59:29.381Z,52.60
2023-02-16T17:04:22.285Z,49.00
2023-02-16T17:09:16.865Z,52.80
2023-02-16T17:14:19.001Z,51.30
2023-02-16T17:19:16.681Z,46.70
2023-02-16T17:24:10.344Z,46.20
2023-02-16T17:29:03.681Z,46.60
2023-02-16T17:33:56.463Z,44.70
2023-02-16T17:38:49.949Z,46.20
2023-02-16T17:43:42.718Z,45.80
2023-02-16T17:48:35.479Z,49.90
2023-02-16T17:53:29.562Z,46.40
2023-02-16T17:58:24.246Z,44.70
2023-02-16T18:03:18.195Z,46.80
2023-02-16T18:08:12.531Z,41.70
2023-02-16T18:13:07.137Z,44.90
2023-02-16T18:18:01.031Z,46.80
2023-02-16T18:22:54.774Z,49.30
2023-02-16T18:27:47.816Z,53.50
2023-02-16T18:32:41.923Z,40.10
2023-02-16T18:37:38.345Z,49.30
2023-02-16T18:42:31.118Z,46.70
2023-02-16T18:47:26.424Z,52.80
2023-02-16T18:52:20.155Z,53.70
2023-02-16T18:57:13.039Z,57.10
2023-02-16T19:02:05.939Z,47.80
2023-02-16T19:06:59.365Z,52.30
2023-02-16T19:11:54.061Z,52.20
2023-02-16T19:16:47.753Z,49.90
2023-02-16T19:21:41.244Z,43.90
2023-02-16T19:26:34.097Z,52.20
2023-02-16T19:31:30.077Z,55.20
2023-02-16T19:36:23.933Z,60.30
2023-02-16T19:41:23.803Z,58.70
2023-02-16T19:46:17.201Z,60.30
2023-02-16T19:51:11.375Z,59.90
2023-02-16T19:56:09.368Z,55.60
2023-02-16T20:01:10.923Z,58.70
2023-02-16T20:06:20.879Z,58.00
2023-02-16T20:11:15.765Z,62.50
2023-02-16T20:16:10.218Z,56.20
2023-02-16T20:21:08.992Z,59.40
2023-02-16T20:26:05.376Z,55.80
2023-02-16T20:30:58.401Z,58.60
2023-02-16T20:35:51.217Z,59.10
2023-02-16T20:40:44.995Z,68.00
2023-02-16T20:45:41.379Z,58.30
2023-02-16T20:50:34.306Z,60.10
2023-02-16T20:55:27.203Z,57.50
2023-02-16T21:00:21.835Z,59.10
2023-02-16T21:05:15.025Z,60.70
2023-02-16T21:10:10.271Z,55.80
2023-02-16T21:15:03.355Z,57.10
2023-02-16T21:19:56.225Z,64.80
2023-02-16T21:24:49.070Z,59.40
2023-02-16T21:29:41.869Z,59.80
2023-02-16T21:34:34.706Z,58.00
2023-02-16T21:39:41.430Z,56.30
2023-02-16T21:44:34.411Z,58.60
2023-02-16T21:49:27.175Z,51.70
2023-02-16T21:54:41.444Z,62.50
2023-02-16T21:59:35.102Z,56.40
2023-02-16T22:04:28.697Z,60.40
2023-02-16T22:09:24.488Z,56.60
2023-02-16T22:14:17.908Z,52.00
2023-02-16T22:19:14.171Z,50.10
2023-02-16T22:24:07.740Z,53.30
2023-02-16T22:29:01.051Z,54.10
2023-02-16T22:34:03.099Z,47.70
2023-02-16T22:38:56.465Z,55.30
2023-02-16T22:43:49.488Z,53.20
2023-02-16T22:48:43.152Z,54.90
2023-02-16T22:53:38.166Z,56.10
2023-02-16T22:58:31.134Z,55.30
2023-02-16T23:03:24.210Z,55.10
2023-02-16T23:08:17.586Z,52.80
2023-02-16T23:13:10.899Z,63.90
2023-02-16T23:18:03.946Z,55.50
2023-02-16T23:22:57.674Z,55.10
2023-02-16T23:27:53.767Z,56.60
2023-02-16T23:32:47.843Z,58.10
2023-02-16T23:37:40.876Z,58.20
2023-02-16T23:42:33.767Z,56.10
2023-02-16T23:47:26.606Z,54.40
2023-02-16T23:52:19.950Z,56.00
2023-02-16T23:57:13.049Z,53.00
